Time;durP1;ratioP1;P1;durP2;ratioP2;P2;SDS_P1;SDS_P2;PMS_P1;PMS_P2;Temp;Humidity;BMP_temperature;BMP_pressure;BME280_temperature;BME280_humidity;BME280_pressure;Samples;Min_cycle;Max_cycle;Signal;HPM_P1;HPM_P2
2022/05/09 00:02:10;;;;;;;;;;;;;;;18.47;60.67;101408.72;7401954;19;1883;-37
2022/05/09 00:04:41;;;;;;;;;;;;;;;18.47;60.94;101412.25;7403569;19;1964;-37
2022/05/09 00:07:10;;;;;;;;;;;;;;;18.45;60.75;101399.97;7403258;19;1910;-37
2022/05/09 00:09:38;;;;;;;;;;;;;;;18.45;60.63;101410.66;7402595;19;1793;-38
2022/05/09 00:12:07;;;;;;;;;;;;;;;18.46;60.49;101410.56;7402314;19;1728;-37
2022/05/09 00:14:35;;;;;;;;;;;;;;;18.45;60.66;101411.50;7399798;19;1855;-37
2022/05/09 00:17:03;;;;;;;;;;;;;;;18.46;60.91;101423.06;7402325;19;1464;-37
2022/05/09 00:19:31;;;;;;;;;;;;;;;18.43;60.86;101413.47;7401505;19;1660;-37
2022/05/09 00:22:02;;;;;;;;;;;;;;;18.44;60.69;101420.53;7401893;19;1902;-37
2022/05/09 00:24:31;;;;;;;;;;;;;;;18.45;60.68;101418.72;7402098;19;1559;-37
2022/05/09 00:27:00;;;;;;;;;;;;;;;18.43;60.62;101415.28;7402337;19;1945;-37
2022/05/09 00:29:28;;;;;;;;;;;;;;;18.44;60.40;101414.31;7401524;19;1484;-37
2022/05/09 00:31:57;;;;;;;;;;;;;;;18.43;61.00;101416.13;7402416;19;1615;-37
2022/05/09 00:34:26;;;;;;;;;;;;;;;18.44;60.60;101416.97;7401828;19;1842;-37
2022/05/09 00:36:55;;;;;;;;;;;;;;;18.47;60.97;101433.69;7402317;19;1698;-37
2022/05/09 00:39:26;;;;;;;;;;;;;;;18.42;60.65;101422.47;7401567;19;1692;-37
2022/05/09 00:41:54;;;;;;;;;;;;;;;18.42;60.31;101411.75;7401440;19;1845;-37
2022/05/09 00:44:25;;;;;;;;;;;;;;;18.41;60.50;101420.75;7401377;19;1923;-37
2022/05/09 00:46:55;;;;;;;;;;;;;;;18.43;60.81;101417.97;7402626;19;1729;-37
2022/05/09 00:49:26;;;;;;;;;;;;;;;18.45;60.53;101410.66;7401895;19;1936;-37
2022/05/09 00:51:57;;;;;;;;;;;;;;;18.42;60.59;101416.25;7401391;19;1700;-37
2022/05/09 00:54:29;;;;;;;;;;;;;;;18.40;60.70;101413.72;7400236;19;2056;-37
2022/05/09 00:57:01;;;;;;;;;;;;;;;18.39;61.01;101408.47;7401597;19;1836;-37
2022/05/09 00:59:32;;;;;;;;;;;;;;;18.39;60.49;101413.81;7400674;19;1724;-37
2022/05/09 01:02:00;;;;;;;;;;;;;;;18.38;60.63;101420.13;7400538;19;1988;-37
2022/05/09 01:04:30;;;;;;;;;;;;;;;18.42;60.65;101418.91;7401378;19;1763;-37
2022/05/09 01:07:00;;;;;;;;;;;;;;;18.38;60.66;101412.97;7401559;19;1838;-38
2022/05/09 01:09:30;;;;;;;;;;;;;;;18.38;60.86;101412.09;7397567;19;1500;-37
2022/05/09 01:11:59;;;;;;;;;;;;;;;18.35;60.61;101409.66;7400398;19;1691;-37
2022/05/09 01:14:30;;;;;;;;;;;;;;;18.39;60.36;101411.97;7399225;19;1886;-37
2022/05/09 01:16:59;;;;;;;;;;;;;;;18.37;61.00;101410.41;7400696;19;1607;-37
2022/05/09 01:19:30;;;;;;;;;;;;;;;18.38;60.94;101402.25;7400049;19;1640;-37
2022/05/09 01:22:02;;;;;;;;;;;;;;;18.37;61.04;101405.03;7399554;19;1887;-37
2022/05/09 01:24:31;;;;;;;;;;;;;;;18.38;60.61;101421.00;7401475;19;1586;-37
2022/05/09 01:26:59;;;;;;;;;;;;;;;18.40;60.57;101415.50;7407693;19;1648;-37
2022/05/09 01:29:33;;;;;;;;;;;;;;;18.40;60.41;101402.13;7406434;19;1738;-37
2022/05/09 01:32:02;;;;;;;;;;;;;;;18.40;60.29;101410.16;7406780;19;1768;-37
2022/05/09 01:34:33;;;;;;;;;;;;;;;18.37;60.77;101413.06;7407001;19;1861;-38
2022/05/09 01:37:05;;;;;;;;;;;;;;;18.36;60.96;101404.16;7407855;19;1935;-37
2022/05/09 01:39:36;;;;;;;;;;;;;;;18.36;60.37;101406.00;7407482;19;1578;-37
2022/05/09 01:42:06;;;;;;;;;;;;;;;18.36;60.69;101408.69;7407584;19;1830;-37
2022/05/09 01:44:34;;;;;;;;;;;;;;;18.37;60.58;101405.03;7407102;19;1581;-37
2022/05/09 01:49:43;;;;;;;;;;;;;;;18.35;60.53;101415.03;7408158;19;1765;-37
2022/05/09 01:52:15;;;;;;;;;;;;;;;18.35;60.52;101417.69;7407126;19;2027;-37
2022/05/09 01:54:45;;;;;;;;;;;;;;;18.33;60.33;101401.75;7405893;19;1913;-37
2022/05/09 01:57:14;;;;;;;;;;;;;;;18.35;60.45;101412.34;7407047;19;1720;-37
2022/05/09 01:59:43;;;;;;;;;;;;;;;18.32;60.84;101412.56;7406805;19;1740;-37
2022/05/09 02:02:14;;;;;;;;;;;;;;;18.32;60.63;101428.63;7383994;19;3342;-36
2022/05/09 02:04:50;;;;;;;;;;;;;;;18.32;60.66;101421.44;7412252;19;1914;-35
2022/05/09 02:07:33;;;;;;;;;;;;;;;18.28;60.70;101430.66;7416467;19;1768;-35
2022/05/09 02:10:03;;;;;;;;;;;;;;;18.33;60.88;101423.16;7411485;19;1905;-35
2022/05/09 02:12:31;;;;;;;;;;;;;;;18.32;60.69;101440.19;7409034;19;1909;-35
2022/05/09 02:15:04;;;;;;;;;;;;;;;18.31;60.39;101430.44;7408822;19;1853;-35
2022/05/09 02:17:35;;;;;;;;;;;;;;;18.31;60.60;101433.13;7408002;19;1580;-35
2022/05/09 02:20:05;;;;;;;;;;;;;;;18.31;60.64;101437.63;7406114;19;2101;-35
2022/05/09 02:22:38;;;;;;;;;;;;;;;18.31;60.73;101443.00;7406491;19;1652;-35
2022/05/09 02:25:43;;;;;;;;;;;;;;;;;;;;;
2022/05/09 02:28:13;;;;;;;;;;;;;;;18.30;60.76;101447.47;7404139;19;1487;-36
2022/05/09 02:30:43;;;;;;;;;;;;;;;18.29;60.74;101440.44;7406392;19;1367;-35
2022/05/09 02:33:15;;;;;;;;;;;;;;;18.30;60.52;101452.81;7405566;19;1849;-35
2022/05/09 02:36:04;;;;;;;;;;;;;;;18.31;60.90;101448.34;7404452;19;1863;-35
2022/05/09 02:38:35;;;;;;;;;;;;;;;18.28;60.65;101452.09;7405189;19;1592;-35
2022/05/09 02:41:06;;;;;;;;;;;;;;;18.28;60.84;101452.97;7405544;19;1543;-35
2022/05/09 02:43:39;;;;;;;;;;;;;;;18.27;60.45;101450.41;7405785;19;1364;-35
2022/05/09 02:46:09;;;;;;;;;;;;;;;18.31;60.96;101456.38;7406428;19;1674;-35
2022/05/09 02:48:39;;;;;;;;;;;;;;;18.27;60.61;101445.88;7405145;19;1547;-35
2022/05/09 02:51:22;;;;;;;;;;;;;;;18.26;60.31;101444.19;7406397;19;1931;-36
2022/05/09 02:54:03;;;;;;;;;;;;;;;18.23;60.89;101446.25;7405281;19;1778;-35
2022/05/09 02:56:35;;;;;;;;;;;;;;;18.24;60.86;101446.13;7401445;19;1845;-35
2022/05/09 02:59:06;;;;;;;;;;;;;;;18.23;60.66;101457.78;7404590;19;1414;-35
2022/05/09 03:01:37;;;;;;;;;;;;;;;18.26;60.81;101454.91;7404968;19;1453;-35
2022/05/09 03:06:53;;;;;;;;;;;;;;;18.23;60.75;101454.28;7402630;19;1906;-36
2022/05/09 03:09:32;;;;;;;;;;;;;;;18.23;60.46;101459.63;7404512;19;1881;-36
2022/05/09 03:12:01;;;;;;;;;;;;;;;18.25;60.54;101453.19;7405008;19;1687;-35
2022/05/09 03:14:30;;;;;;;;;;;;;;;18.24;60.78;101455.97;7403306;19;1852;-36
2022/05/09 03:17:02;;;;;;;;;;;;;;;18.21;60.27;101456.19;7404535;19;1530;-35
2022/05/09 03:19:30;;;;;;;;;;;;;;;18.22;60.63;101473.97;7403756;19;1511;-35
2022/05/09 03:21:59;;;;;;;;;;;;;;;18.19;61.06;101463.50;7404241;19;1574;-35
2022/05/09 03:24:34;;;;;;;;;;;;;;;18.15;61.20;101460.19;7404423;19;2060;-35
2022/05/09 03:27:07;;;;;;;;;;;;;;;18.17;61.16;101487.69;7403568;19;1759;-36
2022/05/09 03:29:39;;;;;;;;;;;;;;;18.15;61.04;101480.75;7403543;19;1528;-35
2022/05/09 03:32:14;;;;;;;;;;;;;;;18.15;60.92;101486.09;7404254;19;1389;-36
2022/05/09 03:34:46;;;;;;;;;;;;;;;18.17;61.12;101493.03;7404857;19;2021;-37
2022/05/09 03:37:17;;;;;;;;;;;;;;;18.16;61.08;101485.13;7402448;19;1993;-37
2022/05/09 03:39:54;;;;;;;;;;;;;;;18.19;61.20;101488.44;7403975;19;1629;-38
2022/05/09 03:42:26;;;;;;;;;;;;;;;18.16;60.93;101496.69;7403364;19;1964;-37
2022/05/09 03:44:55;;;;;;;;;;;;;;;18.16;60.98;101494.00;7404234;19;1455;-37
2022/05/09 03:47:23;;;;;;;;;;;;;;;18.18;60.89;101497.41;7404376;19;1836;-37
2022/05/09 03:50:00;;;;;;;;;;;;;;;18.17;61.03;101495.72;7401735;19;1911;-38
2022/05/09 03:52:37;;;;;;;;;;;;;;;18.16;61.15;101477.94;7403413;19;1927;-38
2022/05/09 03:55:22;;;;;;;;;;;;;;;18.18;60.66;101489.38;7401538;19;1842;-37
2022/05/09 03:57:55;;;;;;;;;;;;;;;18.20;60.75;101497.31;7403159;19;1784;-38
2022/05/09 04:00:33;;;;;;;;;;;;;;;18.21;60.65;101501.72;7403683;19;1665;-37
2022/05/09 04:03:04;;;;;;;;;;;;;;;18.21;60.67;101499.88;7402671;19;2072;-37
2022/05/09 04:05:35;;;;;;;;;;;;;;;18.23;60.77;101481.88;7401248;19;1599;-38
2022/05/09 04:08:16;;;;;;;;;;;;;;;18.24;60.67;101505.03;7402695;19;1593;-38
2022/05/09 04:11:05;;;;;;;;;;;;;;;18.24;60.44;101498.78;7402993;19;1965;-38
2022/05/09 04:13:37;;;;;;;;;;;;;;;18.29;60.75;101508.22;7400955;19;1573;-37
2022/05/09 04:18:52;;;;;;;;;;;;;;;18.31;60.78;101499.22;7401849;19;1923;-37
2022/05/09 04:21:23;;;;;;;;;;;;;;;18.33;61.14;101494.59;7401097;19;2025;-36
2022/05/09 04:23:55;;;;;;;;;;;;;;;18.36;60.99;101489.00;7401646;19;1575;-37
2022/05/09 04:26:31;;;;;;;;;;;;;;;18.38;60.46;101514.72;7400632;19;1859;-38
2022/05/09 04:29:06;;;;;;;;;;;;;;;18.46;60.28;101514.13;7401580;19;1498;-37
2022/05/09 04:31:38;;;;;;;;;;;;;;;18.52;59.98;101505.63;7401808;19;1602;-38
2022/05/09 04:34:23;;;;;;;;;;;;;;;18.52;60.01;101505.63;7401305;19;2037;-37
2022/05/09 04:36:51;;;;;;;;;;;;;;;18.49;60.48;101487.97;7400378;19;1867;-38
2022/05/09 04:39:24;;;;;;;;;;;;;;;18.52;60.50;101494.91;7401925;19;1812;-37
2022/05/09 04:41:53;;;;;;;;;;;;;;;18.55;60.38;101504.56;7401317;19;1972;-37
2022/05/09 04:44:36;;;;;;;;;;;;;;;18.54;60.18;101526.97;7401214;19;1677;-37
2022/05/09 04:49:53;;;;;;;;;;;;;;;18.54;60.81;101508.22;7399465;19;2440;-39
2022/05/09 04:52:27;;;;;;;;;;;;;;;18.68;60.75;101508.91;7402298;19;1590;-38
2022/05/09 04:54:56;;;;;;;;;;;;;;;18.84;61.21;101516.66;7401670;19;1864;-38
2022/05/09 04:57:27;;;;;;;;;;;;;;;18.85;60.77;101526.41;7401378;19;1704;-38
2022/05/09 04:59:55;;;;;;;;;;;;;;;18.92;61.66;101534.84;7400099;19;1961;-38
2022/05/09 05:02:36;;;;;;;;;;;;;;;19.05;61.94;101526.72;7400491;19;1677;-38
2022/05/09 05:05:06;;;;;;;;;;;;;;;18.73;61.90;101484.44;7402383;19;1467;-37
2022/05/09 05:07:35;;;;;;;;;;;;;;;19.10;62.62;101519.19;7401701;19;2009;-38
2022/05/09 05:10:12;;;;;;;;;;;;;;;19.14;62.11;101526.03;7400224;19;1422;-37
2022/05/09 05:12:45;;;;;;;;;;;;;;;19.12;62.13;101527.97;7402000;19;2275;-38
2022/05/09 05:15:14;;;;;;;;;;;;;;;19.10;62.69;101529.03;7400905;19;1972;-37
2022/05/09 05:18:00;;;;;;;;;;;;;;;19.08;62.33;101521.13;7400586;19;1869;-39
2022/05/09 05:20:35;;;;;;;;;;;;;;;19.05;62.58;101535.59;7400453;19;1456;-38
2022/05/09 05:23:28;;;;;;;;;;;;;;;19.10;62.66;101521.00;7397703;19;1379;-39
2022/05/09 05:25:58;;;;;;;;;;;;;;;19.12;63.04;101514.56;7399667;19;1451;-38
2022/05/09 05:28:26;;;;;;;;;;;;;;;19.15;62.73;101526.88;7400410;19;1398;-37
2022/05/09 05:30:56;;;;;;;;;;;;;;;19.18;62.78;101537.34;7400828;19;2034;-37
2022/05/09 05:33:25;;;;;;;;;;;;;;;19.20;62.43;101536.28;7398698;19;1678;-39
2022/05/09 05:36:08;;;;;;;;;;;;;;;19.21;62.63;101532.59;7398664;19;1853;-38
2022/05/09 05:38:43;;;;;;;;;;;;;;;19.19;62.87;101520.28;7400776;19;2097;-37
2022/05/09 05:41:13;;;;;;;;;;;;;;;19.28;62.62;101523.13;7399685;19;1810;-38
2022/05/09 05:43:43;;;;;;;;;;;;;;;19.34;62.38;101531.66;7400463;19;1907;-37
2022/05/09 05:46:13;;;;;;;;;;;;;;;19.34;62.28;101553.97;7400563;19;1961;-38
2022/05/09 05:48:45;;;;;;;;;;;;;;;19.31;62.60;101537.25;7399188;19;2003;-37
2022/05/09 05:51:18;;;;;;;;;;;;;;;19.34;62.63;101537.88;7398989;19;1796;-38
2022/05/09 05:53:50;;;;;;;;;;;;;;;19.36;62.69;101535.94;7399887;19;1819;-38
2022/05/09 05:56:31;;;;;;;;;;;;;;;19.41;61.86;101549.84;7397914;19;1869;-38
2022/05/09 05:59:06;;;;;;;;;;;;;;;19.41;61.81;101557.88;7398574;19;1946;-38
2022/05/09 06:01:37;;;;;;;;;;;;;;;19.46;62.17;101547.66;7399034;19;1974;-39
2022/05/09 06:04:22;;;;;;;;;;;;;;;19.42;61.93;101546.19;7399727;19;1492;-37
2022/05/09 06:06:53;;;;;;;;;;;;;;;19.43;62.20;101555.94;7399392;19;1465;-38
2022/05/09 06:09:32;;;;;;;;;;;;;;;19.38;62.34;101534.00;7397099;19;1518;-37
2022/05/09 06:12:02;;;;;;;;;;;;;;;19.41;62.17;101541.78;7402103;19;1827;-38
2022/05/09 06:14:30;;;;;;;;;;;;;;;19.47;62.45;101556.56;7406067;19;1689;-38
2022/05/09 06:17:08;;;;;;;;;;;;;;;19.51;62.34;101559.84;7404883;19;1857;-37
2022/05/09 06:19:44;;;;;;;;;;;;;;;19.54;62.49;101556.94;7407835;19;1614;-38
2022/05/09 06:22:13;;;;;;;;;;;;;;;19.47;62.61;101549.34;7407335;19;1736;-37
2022/05/09 06:24:44;;;;;;;;;;;;;;;19.53;62.05;101533.75;7405568;19;1897;-38
2022/05/09 06:27:14;;;;;;;;;;;;;;;19.47;61.95;101543.97;7405755;19;1759;-38
2022/05/09 06:29:50;;;;;;;;;;;;;;;19.49;62.04;101546.56;7404010;19;1503;-37
2022/05/09 06:32:25;;;;;;;;;;;;;;;19.48;62.05;101545.72;7407045;19;1670;-37
2022/05/09 06:34:56;;;;;;;;;;;;;;;19.55;61.79;101556.81;7406248;19;1799;-38
2022/05/09 06:37:32;;;;;;;;;;;;;;;19.60;61.95;101548.41;7404531;19;1970;-36
2022/05/09 06:40:09;;;;;;;;;;;;;;;19.63;62.52;101553.53;7406354;19;1904;-37
2022/05/09 06:42:40;;;;;;;;;;;;;;;19.63;62.38;101542.78;7405428;19;1724;-36
2022/05/09 06:45:14;;;;;;;;;;;;;;;19.70;62.21;101548.56;7404656;19;1715;-36
2022/05/09 06:47:46;;;;;;;;;;;;;;;19.74;61.82;101561.63;7404109;19;1687;-36
2022/05/09 06:50:17;;;;;;;;;;;;;;;19.73;61.78;101562.59;7406038;19;1526;-35
2022/05/09 06:52:48;;;;;;;;;;;;;;;19.70;61.67;101552.09;7404055;19;1872;-36
2022/05/09 06:55:21;;;;;;;;;;;;;;;19.67;61.91;101581.81;7404518;19;1640;-36
2022/05/09 06:57:52;;;;;;;;;;;;;;;19.62;62.02;101559.88;7403037;19;1845;-36
2022/05/09 07:00:28;;;;;;;;;;;;;;;19.58;62.14;101553.06;7404926;19;1780;-36
2022/05/09 07:03:01;;;;;;;;;;;;;;;19.58;62.00;101550.38;7403515;19;1952;-36
2022/05/09 07:10:58;;;;;;;;;;;;;;;19.61;61.44;101550.97;7402511;19;2595;-36
2022/05/09 07:13:27;;;;;;;;;;;;;;;19.57;61.82;101554.84;7405416;19;1814;-36
2022/05/09 07:15:57;;;;;;;;;;;;;;;19.56;61.59;101547.78;7405534;19;1852;-36
2022/05/09 07:18:28;;;;;;;;;;;;;;;19.55;61.64;101539.88;7403864;19;1588;-36
2022/05/09 07:21:11;;;;;;;;;;;;;;;19.57;61.08;101544.13;7401854;19;1953;-36
2022/05/09 07:23:43;;;;;;;;;;;;;;;19.62;61.47;101541.94;7404031;19;1464;-36
2022/05/09 07:26:19;;;;;;;;;;;;;;;19.60;61.48;101543.91;7403109;19;1468;-36
2022/05/09 07:28:49;;;;;;;;;;;;;;;19.60;60.98;101540.38;7403751;19;1893;-36
2022/05/09 07:31:19;;;;;;;;;;;;;;;19.62;60.57;101541.94;7404521;19;1621;-36
2022/05/09 07:33:48;;;;;;;;;;;;;;;19.64;60.87;101536.47;7405424;19;1711;-36
2022/05/09 07:36:21;;;;;;;;;;;;;;;19.63;60.88;101553.53;7402959;19;1885;-36
2022/05/09 07:38:50;;;;;;;;;;;;;;;19.64;60.84;101539.16;7403411;19;1819;-36
2022/05/09 07:41:27;;;;;;;;;;;;;;;19.65;60.68;101543.53;7402497;19;1785;-36
2022/05/09 07:43:57;;;;;;;;;;;;;;;19.66;60.61;101547.94;7404293;19;1858;-37
2022/05/09 07:46:26;;;;;;;;;;;;;;;19.68;60.29;101545.97;7403544;19;1725;-36
2022/05/09 07:48:57;;;;;;;;;;;;;;;19.64;60.41;101552.56;7403432;19;1764;-36
2022/05/09 07:51:33;;;;;;;;;;;;;;;19.65;60.55;101548.88;7402881;19;1740;-36
2022/05/09 07:54:08;;;;;;;;;;;;;;;19.61;59.82;101544.75;7402182;19;2069;-36
2022/05/09 07:56:43;;;;;;;;;;;;;;;19.61;58.85;101544.75;7402272;19;1928;-36
2022/05/09 07:59:17;;;;;;;;;;;;;;;19.61;58.99;101567.06;7403428;19;1786;-36
2022/05/09 08:01:48;;;;;;;;;;;;;;;19.62;58.64;101546.47;7401434;19;1893;-36
2022/05/09 08:04:20;;;;;;;;;;;;;;;19.63;58.55;101543.63;7403792;19;1697;-36
2022/05/09 08:06:55;;;;;;;;;;;;;;;19.61;58.60;101544.75;7402552;19;1820;-38
2022/05/09 08:09:26;;;;;;;;;;;;;;;19.59;58.91;101544.00;7402557;19;1901;-38
2022/05/09 08:11:58;;;;;;;;;;;;;;;19.57;58.79;101543.28;7403270;19;1807;-36
2022/05/09 08:14:28;;;;;;;;;;;;;;;19.60;58.48;101543.91;7403002;19;1731;-36
2022/05/09 08:17:00;;;;;;;;;;;;;;;19.60;58.50;101546.59;7402647;19;1902;-37
2022/05/09 08:19:29;;;;;;;;;;;;;;;19.57;58.38;101538.75;7403000;19;1822;-36
2022/05/09 08:21:57;;;;;;;;;;;;;;;19.60;58.22;101548.41;7400514;19;1841;-36
2022/05/09 08:24:30;;;;;;;;;;;;;;;19.60;58.07;101546.59;7399838;19;2062;-36
2022/05/09 08:27:05;;;;;;;;;;;;;;;19.60;58.21;101545.72;7401476;19;2076;-35
2022/05/09 08:29:35;;;;;;;;;;;;;;;19.67;55.60;101555.00;7402001;19;1558;-37
2022/05/09 09:04:41;;;;;;;;;;;;;;;19.72;48.19;101546.63;3249737;19;10002308;-38
2022/05/09 09:07:24;;;;;;;;;;;;;;;19.79;48.12;101548.69;7422982;19;1676;-36
2022/05/09 09:10:02;;;;;;;;;;;;;;;19.75;49.27;101557.94;7424564;19;1887;-37
2022/05/09 09:12:38;;;;;;;;;;;;;;;19.58;48.83;101553.91;7418379;19;1897;-37
2022/05/09 09:15:10;;;;;;;;;;;;;;;19.64;49.27;101540.00;7422522;19;1622;-37
2022/05/09 09:17:50;;;;;;;;;;;;;;;19.61;48.67;101552.78;7426792;19;1467;-37
2022/05/09 09:20:24;;;;;;;;;;;;;;;19.61;47.83;101542.06;7430583;19;1704;-36
2022/05/09 09:22:58;;;;;;;;;;;;;;;19.53;48.99;101545.34;7430309;19;1814;-37
2022/05/09 09:25:33;;;;;;;;;;;;;;;19.50;48.73;101539.34;7436963;19;1697;-35
2022/05/09 09:28:04;;;;;;;;;;;;;;;19.48;48.44;101534.97;7434776;19;1523;-36
2022/05/09 09:30:34;;;;;;;;;;;;;;;19.45;49.18;101540.56;7434445;19;2028;-36
2022/05/09 09:33:03;;;;;;;;;;;;;;;19.50;48.02;101542.03;7431713;19;1950;-35
2022/05/09 09:35:39;;;;;;;;;;;;;;;19.50;48.34;101542.03;7433785;19;1719;-36
2022/05/09 09:38:11;;;;;;;;;;;;;;;19.53;47.52;101537.28;7435499;19;1574;-36
2022/05/09 09:40:40;;;;;;;;;;;;;;;19.55;47.31;101545.22;7438299;19;1572;-37
2022/05/09 09:43:08;;;;;;;;;;;;;;;19.47;47.44;101546.66;7439356;19;1639;-36
2022/05/09 09:45:40;;;;;;;;;;;;;;;19.45;48.07;101529.84;7435289;19;1975;-36
2022/05/09 09:48:09;;;;;;;;;;;;;;;19.51;47.99;101546.44;7435819;19;2000;-37
2022/05/09 09:50:52;;;;;;;;;;;;;;;19.56;47.26;101544.28;7433156;19;1815;-36
2022/05/09 09:53:31;;;;;;;;;;;;;;;19.49;47.78;101546.56;7433592;19;1871;-36
2022/05/09 09:56:03;;;;;;;;;;;;;;;19.56;47.21;101531.69;7434921;19;1652;-36
2022/05/09 09:58:32;;;;;;;;;;;;;;;19.56;47.14;101526.34;7436335;19;1708;-36
2022/05/09 10:01:04;;;;;;;;;;;;;;;19.56;46.68;101536.22;7435876;19;1663;-36
2022/05/09 10:03:33;;;;;;;;;;;;;;;19.54;47.02;101530.13;7432301;19;1926;-37
2022/05/09 10:06:04;;;;;;;;;;;;;;;19.53;46.61;101541.81;7408115;19;1017;-35
2022/05/09 10:08:34;;;;;;;;;;;;;;;19.52;46.67;101532.91;7405121;19;1730;-36
2022/05/09 10:11:05;;;;;;;;;;;;;;;19.51;46.29;101533.88;7404231;19;1597;-37
2022/05/09 10:13:38;;;;;;;;;;;;;;;19.51;46.03;101533.88;7402973;19;1839;-36
2022/05/09 10:16:11;;;;;;;;;;;;;;;19.47;46.22;101538.63;7404126;19;1709;-36
2022/05/09 10:18:50;;;;;;;;;;;;;;;19.51;46.57;101544.59;7405161;19;1577;-36
2022/05/09 10:26:58;;;;;;;;;;;;;;;19.41;46.62;101532.88;7405005;19;1689;-36
2022/05/09 10:29:43;;;;;;;;;;;;;;;19.44;46.22;101544.25;7404155;19;1683;-37
2022/05/09 10:32:19;;;;;;;;;;;;;;;19.44;46.13;101543.41;7406682;19;1847;-36
2022/05/09 10:34:56;;;;;;;;;;;;;;;19.45;45.70;101547.78;7405713;19;1642;-36
2022/05/09 10:37:40;;;;;;;;;;;;;;;19.45;45.76;101535.22;7405283;19;1743;-36
2022/05/09 10:40:15;;;;;;;;;;;;;;;19.43;45.76;101533.63;7403807;19;1357;-37
2022/05/09 10:42:44;;;;;;;;;;;;;;;19.43;44.41;101536.31;7406071;19;1923;-36
2022/05/09 10:45:26;;;;;;;;;;;;;;;19.44;43.75;101528.16;7407196;19;987;-36
2022/05/09 10:47:58;;;;;;;;;;;;;;;19.43;43.77;101537.16;7404953;19;1533;-38
2022/05/09 10:50:32;;;;;;;;;;;;;;;19.45;44.43;101531.69;7405673;19;2338;-36
2022/05/09 10:53:10;;;;;;;;;;;;;;;19.44;44.83;101549.59;7400304;19;1864;-38
2022/05/09 10:55:40;;;;;;;;;;;;;;;19.43;43.89;101517.53;7402619;19;1937;-37
2022/05/09 10:58:11;;;;;;;;;;;;;;;19.44;42.72;101514.75;7405561;19;2290;-36
2022/05/09 11:00:41;;;;;;;;;;;;;;;19.57;43.48;101509.25;7404584;19;1728;-36
2022/05/09 11:03:24;;;;;;;;;;;;;;;19.57;43.69;101532.53;7404039;19;1746;-36
2022/05/09 11:06:00;;;;;;;;;;;;;;;19.66;42.01;101521.09;7405199;19;1574;-35
2022/05/09 11:08:36;;;;;;;;;;;;;;;19.68;44.32;101513.78;7403323;19;1571;-36
2022/05/09 11:11:11;;;;;;;;;;;;;;;19.63;42.44;101511.44;7402879;19;1925;-36
2022/05/09 11:13:49;;;;;;;;;;;;;;;19.72;42.17;101520.66;7404093;19;1830;-36
2022/05/09 11:16:23;;;;;;;;;;;;;;;19.78;43.86;101520.16;7402163;19;1585;-36
2022/05/09 11:19:03;;;;;;;;;;;;;;;19.85;41.63;101512.44;7403601;19;1556;-35
2022/05/09 11:21:38;;;;;;;;;;;;;;;19.77;44.41;101512.22;7404144;19;1397;-36
2022/05/09 11:24:16;;;;;;;;;;;;;;;19.61;45.55;101508.03;7400744;19;1950;-35
2022/05/09 11:26:49;;;;;;;;;;;;;;;19.66;46.41;101511.22;7403768;19;1641;-36
2022/05/09 11:29:25;;;;;;;;;;;;;;;19.68;46.60;101506.56;7403363;19;1630;-36
2022/05/09 11:32:03;;;;;;;;;;;;;;;19.67;47.49;101498.66;7401945;19;1468;-36
2022/05/09 11:34:42;;;;;;;;;;;;;;;19.82;47.08;101497.47;7400940;19;1859;-36
2022/05/09 11:37:19;;;;;;;;;;;;;;;19.84;46.57;101500.88;7397429;19;1818;-36
2022/05/09 11:39:54;;;;;;;;;;;;;;;19.86;47.85;101496.22;7401726;19;1751;-36
2022/05/09 11:45:23;;;;;;;;;;;;;;;19.85;48.02;101483.78;7397707;19;1532;-36
2022/05/09 11:47:58;;;;;;;;;;;;;;;19.86;48.73;101490.88;7402416;19;1822;-36
2022/05/09 11:50:31;;;;;;;;;;;;;;;19.82;49.57;101496.63;7402612;19;1840;-37
2022/05/09 11:53:17;;;;;;;;;;;;;;;19.82;50.10;101478.66;7399411;19;2044;-36
2022/05/09 11:55:54;;;;;;;;;;;;;;;19.84;51.62;101490.13;7400903;19;1587;-36
2022/05/09 11:58:24;;;;;;;;;;;;;;;19.76;49.97;101478.31;7402186;19;1906;-36
2022/05/09 12:01:05;;;;;;;;;;;;;;;;;;;;;
2022/05/09 12:04:05;;;;;;;;;;;;;;;19.71;49.76;101470.63;7400788;19;1740;-36
2022/05/09 12:06:42;;;;;;;;;;;;;;;19.84;49.16;101474.03;7399558;19;2234;-35
2022/05/09 12:09:15;;;;;;;;;;;;;;;19.98;49.09;101464.84;7402522;19;1914;-35
2022/05/09 12:11:52;;;;;;;;;;;;;;;20.11;48.77;101471.91;7400511;19;1643;-36
2022/05/09 12:14:40;;;;;;;;;;;;;;;20.08;48.89;101466.81;7400919;19;1911;-36
2022/05/09 12:17:21;;;;;;;;;;;;;;;20.12;48.71;101452.16;7402186;19;1687;-35
2022/05/09 12:19:50;;;;;;;;;;;;;;;20.18;49.19;101449.78;7401345;19;1593;-35
2022/05/09 12:22:51;;;;;;;;;;;;;;;20.10;49.63;101446.91;7402597;19;1735;-36
2022/05/09 12:25:42;;;;;;;;;;;;;;;20.04;50.16;101444.72;7401781;19;1614;-36
2022/05/09 12:28:29;;;;;;;;;;;;;;;20.07;49.12;101444.44;7400041;19;1653;-36
2022/05/09 12:31:07;;;;;;;;;;;;;;;20.03;47.97;101446.56;7400335;19;1661;-36
2022/05/09 12:33:58;;;;;;;;;;;;;;;20.16;49.75;101449.06;7400776;19;1858;-39
2022/05/09 12:36:31;;;;;;;;;;;;;;;20.07;46.57;101449.81;7401676;19;1565;-35
2022/05/09 12:39:02;;;;;;;;;;;;;;;19.91;47.49;101433.28;7400406;19;1486;-36
2022/05/09 12:41:37;;;;;;;;;;;;;;;19.84;47.15;101428.41;7401270;19;1845;-35
2022/05/09 12:44:17;;;;;;;;;;;;;;;19.79;47.37;101430.59;7400758;19;1590;-36
2022/05/09 12:46:55;;;;;;;;;;;;;;;19.78;46.25;101442.31;7401712;19;1743;-37
2022/05/09 12:49:28;;;;;;;;;;;;;;;19.81;44.23;101439.38;7400766;19;1587;-37
2022/05/09 12:51:59;;;;;;;;;;;;;;;19.73;44.10;101427.56;7401036;19;1749;-36
2022/05/09 12:55:51;;;;;;;;;;;;;;;19.64;44.71;101415.72;7399403;19;1961;-37
2022/05/09 12:57:35;;;;;;;;;;;;;;;19.59;44.85;101417.91;7399267;19;1939;-37
2022/05/09 13:00:09;;;;;;;;;;;;;;;19.52;45.91;101422.94;7401295;19;1908;-36
2022/05/09 13:02:40;;;;;;;;;;;;;;;19.48;45.98;101416.94;7401072;19;1517;-36
2022/05/09 13:05:09;;;;;;;;;;;;;;;19.52;46.10;101411.31;7399232;19;1683;-36
2022/05/09 13:07:53;;;;;;;;;;;;;;;19.52;46.46;101417.56;7400790;19;1384;-36
2022/05/09 13:10:21;;;;;;;;;;;;;;;19.48;46.20;101408.06;7399608;19;1811;-36
2022/05/09 13:12:49;;;;;;;;;;;;;;;19.45;46.39;101409.13;7400290;19;1903;-37
2022/05/09 13:15:19;;;;;;;;;;;;;;;19.47;46.25;101399.13;7399703;19;1879;-36
2022/05/09 13:17:51;;;;;;;;;;;;;;;19.44;46.65;101394.03;7400943;19;1765;-36
2022/05/09 13:20:20;;;;;;;;;;;;;;;19.49;45.87;101399.03;7399658;19;1854;-37
2022/05/09 13:22:51;;;;;;;;;;;;;;;19.46;46.11;101381.34;7401197;19;1917;-37
2022/05/09 13:25:21;;;;;;;;;;;;;;;19.42;46.63;101390.63;7400280;19;2068;-37
2022/05/09 13:27:51;;;;;;;;;;;;;;;19.42;46.02;101393.31;7400457;19;1892;-37
2022/05/09 13:30:21;;;;;;;;;;;;;;;19.41;46.84;101393.41;7398658;19;1820;-37
2022/05/09 13:32:57;;;;;;;;;;;;;;;19.38;46.03;101399.88;7400627;19;1942;-37
2022/05/09 13:35:28;;;;;;;;;;;;;;;19.35;46.51;101381.34;7398239;19;2071;-36
2022/05/09 13:37:56;;;;;;;;;;;;;;;19.36;46.65;101369.66;7398880;19;2381;-37
2022/05/09 13:40:25;;;;;;;;;;;;;;;19.36;47.47;101372.34;7404989;19;1786;-36
2022/05/09 13:42:55;;;;;;;;;;;;;;;19.34;47.46;101376.09;7407120;19;1886;-37
2022/05/09 13:45:24;;;;;;;;;;;;;;;19.35;47.45;101367.94;7407905;19;1600;-37
2022/05/09 13:47:57;;;;;;;;;;;;;;;19.34;47.83;101368.94;7408015;19;1806;-36
2022/05/09 13:50:28;;;;;;;;;;;;;;;19.37;47.12;101382.09;7407485;19;1746;-37
2022/05/09 13:52:57;;;;;;;;;;;;;;;19.33;47.51;101375.25;7410033;19;1630;-37
2022/05/09 13:55:30;;;;;;;;;;;;;;;19.32;46.61;101373.56;7411774;19;1882;-38
2022/05/09 13:58:00;;;;;;;;;;;;;;;19.32;47.50;101360.16;7409706;19;1882;-37
2022/05/09 14:00:31;;;;;;;;;;;;;;;19.31;47.19;101371.84;7407285;19;1836;-37
2022/05/09 14:03:05;;;;;;;;;;;;;;;19.31;46.58;101379.88;7407181;19;1802;-36
2022/05/09 14:05:35;;;;;;;;;;;;;;;19.36;46.82;101375.03;7404886;19;1786;-36
2022/05/09 14:08:06;;;;;;;;;;;;;;;19.37;47.66;101371.34;7406488;19;1631;-36
2022/05/09 14:10:42;;;;;;;;;;;;;;;19.32;47.41;101370.88;7407069;19;1751;-37
2022/05/09 14:13:28;;;;;;;;;;;;;;;19.31;47.21;101371.84;7406700;19;1761;-37
2022/05/09 14:15:59;;;;;;;;;;;;;;;19.30;47.80;101359.44;7407386;19;1904;-37
2022/05/09 14:18:32;;;;;;;;;;;;;;;19.31;47.37;101373.69;7407626;19;2036;-37